Time;durP1;ratioP1;P1;durP2;ratioP2;P2;SDS_P1;SDS_P2;PMS_P1;PMS_P2;Temp;Humidity;BMP_temperature;BMP_pressure;BME280_temperature;BME280_humidity;BME280_pressure;Samples;Min_cycle;Max_cycle;Signal;HPM_P1;HPM_P2
2023/06/12 00:00:38;;;;;;;9.35;7.50;;;13.10;99.90;;;;;;5093940;28;20036;-71
2023/06/12 00:03:03;;;;;;;9.70;7.80;;;13.00;99.90;;;;;;5092377;28;20046;-71
2023/06/12 00:05:29;;;;;;;10.68;7.70;;;13.00;99.90;;;;;;5096713;28;20036;-71
2023/06/12 00:07:57;;;;;;;9.02;8.10;;;13.00;99.90;;;;;;5097871;28;20502;-71
2023/06/12 00:10:23;;;;;;;11.20;7.88;;;13.00;99.90;;;;;;5097579;28;20036;-72
2023/06/12 00:12:49;;;;;;;12.98;7.55;;;12.90;99.90;;;;;;5097517;28;20028;-71
2023/06/12 00:15:15;;;;;;;9.05;7.40;;;12.90;99.90;;;;;;5096195;28;20036;-71
2023/06/12 00:17:41;;;;;;;10.48;7.90;;;12.90;99.90;;;;;;5096102;28;20043;-71
2023/06/12 00:20:08;;;;;;;11.38;7.70;;;12.80;99.90;;;;;;5097038;28;20048;-71
2023/06/12 00:22:39;;;;;;;13.02;8.38;;;12.80;99.90;;;;;;5097082;28;20033;-71
2023/06/12 00:25:09;;;;;;;11.40;7.90;;;12.80;99.90;;;;;;5096514;28;20133;-71
2023/06/12 00:27:35;;;;;;;10.20;8.13;;;12.80;99.90;;;;;;5097470;28;20032;-71
2023/06/12 00:30:01;;;;;;;11.02;8.32;;;12.70;99.90;;;;;;5097230;28;20462;-71
2023/06/12 00:32:27;;;;;;;15.00;8.48;;;12.70;99.90;;;;;;5095891;28;20520;-71
2023/06/12 00:34:53;;;;;;;10.57;8.15;;;12.70;99.90;;;;;;5097297;28;20116;-71
2023/06/12 00:37:18;;;;;;;10.07;8.45;;;12.70;99.90;;;;;;5097225;28;20032;-71
2023/06/12 00:39:44;;;;;;;10.32;7.65;;;12.60;99.90;;;;;;5096805;28;20458;-72
2023/06/12 00:42:10;;;;;;;9.57;8.13;;;12.60;99.90;;;;;;5095695;28;20036;-71
2023/06/12 00:44:36;;;;;;;13.73;8.00;;;12.50;99.90;;;;;;5095611;28;20036;-71
2023/06/12 00:47:03;;;;;;;9.43;7.70;;;12.60;99.90;;;;;;5096587;28;20162;-72
2023/06/12 00:49:29;;;;;;;10.43;8.20;;;12.50;99.90;;;;;;5096588;28;20115;-71
2023/06/12 00:51:55;;;;;;;12.48;7.50;;;12.50;99.90;;;;;;5096811;28;20029;-72
2023/06/12 00:54:23;;;;;;;11.25;7.97;;;12.50;99.90;;;;;;5096879;28;20039;-72
2023/06/12 00:56:49;;;;;;;12.75;8.10;;;12.50;99.90;;;;;;5096741;28;20043;-72
2023/06/12 00:59:16;;;;;;;13.27;7.72;;;12.50;99.90;;;;;;5096544;28;20036;-71
2023/06/12 01:01:42;;;;;;;7.78;7.03;;;12.40;99.90;;;;;;5095310;28;20036;-72
2023/06/12 01:04:09;;;;;;;12.65;7.88;;;12.50;99.90;;;;;;5096560;28;20043;-71
2023/06/12 01:06:44;;;;;;;12.80;7.60;;;12.40;99.90;;;;;;5094947;28;20127;-71
2023/06/12 01:09:25;;;;;;;7.57;6.80;;;12.40;99.90;;;;;;5096725;28;20123;-72
2023/06/12 01:11:52;;;;;;;10.07;7.47;;;12.30;99.90;;;;;;5095710;28;20389;-72
2023/06/12 01:14:18;;;;;;;9.32;7.47;;;12.30;99.90;;;;;;5095833;28;20039;-72
2023/06/12 01:16:45;;;;;;;11.05;7.72;;;12.20;99.90;;;;;;5095781;28;20028;-72
2023/06/12 01:19:14;;;;;;;14.02;8.82;;;12.20;99.90;;;;;;5095841;28;20122;-72
2023/06/12 01:21:43;;;;;;;13.40;7.75;;;12.20;99.90;;;;;;5096437;28;20038;-72
2023/06/12 01:24:53;;;;;;;10.55;8.25;;;12.10;99.90;;;;;;5095788;28;20480;-71
2023/06/12 01:27:18;;;;;;;9.55;8.13;;;12.10;99.90;;;;;;5096162;28;20032;-71
2023/06/12 01:30:04;;;;;;;8.55;7.60;;;12.00;99.90;;;;;;5096040;28;20072;-71
2023/06/12 01:32:31;;;;;;;11.38;7.75;;;12.00;99.90;;;;;;5096144;28;20078;-72
2023/06/12 01:35:11;;;;;;;8.82;7.93;;;12.00;99.90;;;;;;5096326;28;20028;-72
2023/06/12 01:38:16;;;;;;;13.88;9.73;;;12.00;99.90;;;;;;5096187;28;20032;-72
2023/06/12 01:40:45;;;;;;;9.38;8.32;;;11.90;99.90;;;;;;5033328;28;20076;-72
2023/06/12 01:43:10;;;;;;;13.93;8.43;;;11.90;99.90;;;;;;5033317;28;20037;-72
2023/06/12 01:45:37;;;;;;;13.05;9.10;;;11.80;99.90;;;;;;5033338;28;20040;-72
2023/06/12 01:48:05;;;;;;;18.15;9.10;;;11.80;99.90;;;;;;5033261;28;20037;-72
2023/06/12 01:50:31;;;;;;;11.55;8.65;;;11.90;99.90;;;;;;5033154;28;20037;-73
2023/06/12 01:52:57;;;;;;;11.45;8.23;;;11.90;99.90;;;;;;5033635;28;20108;-71
2023/06/12 01:55:22;;;;;;;13.38;7.97;;;11.80;99.90;;;;;;5016543;28;20529;-71
2023/06/12 01:57:51;;;;;;;14.50;9.05;;;11.80;99.90;;;;;;5033115;28;20068;-71
2023/06/12 02:00:17;;;;;;;11.88;9.32;;;11.80;99.90;;;;;;5032878;28;20042;-71
2023/06/12 02:02:43;;;;;;;9.57;8.48;;;11.80;99.90;;;;;;5032995;28;20032;-71
2023/06/12 02:05:10;;;;;;;13.52;8.40;;;;;;;;;;5016280;28;20044;-71
2023/06/12 02:07:36;;;;;;;11.30;8.18;;;11.70;99.90;;;;;;5032867;28;20037;-72
2023/06/12 02:10:02;;;;;;;10.70;7.88;;;11.70;99.90;;;;;;5016206;28;20034;-71
2023/06/12 02:12:29;;;;;;;17.13;8.82;;;11.70;99.90;;;;;;5091229;28;20063;-71
2023/06/12 02:14:57;;;;;;;13.10;8.95;;;11.60;99.90;;;;;;5095215;28;20020;-72
2023/06/12 02:17:22;;;;;;;10.82;8.30;;;11.60;99.90;;;;;;5095062;28;20024;-71
2023/06/12 02:19:48;;;;;;;14.82;8.70;;;11.60;99.90;;;;;;5095217;28;20048;-72
2023/06/12 02:22:14;;;;;;;15.93;9.15;;;11.60;99.90;;;;;;5095034;28;20040;-72
2023/06/12 02:24:40;;;;;;;12.07;8.82;;;11.50;99.90;;;;;;5093754;28;20032;-71
2023/06/12 02:27:06;;;;;;;10.02;8.43;;;11.50;99.90;;;;;;5092815;28;20031;-71
2023/06/12 02:29:31;;;;;;;10.85;8.40;;;11.50;99.90;;;;;;5093630;28;20397;-73
2023/06/12 02:31:57;;;;;;;21.00;9.52;;;11.50;99.90;;;;;;5093558;28;20035;-72
2023/06/12 02:34:23;;;;;;;13.20;8.60;;;11.50;99.90;;;;;;5094611;28;20107;-72
2023/06/12 02:36:49;;;;;;;9.27;8.38;;;11.40;99.90;;;;;;5094516;28;20032;-71
2023/06/12 02:39:15;;;;;;;10.50;8.98;;;11.40;99.90;;;;;;5094846;28;20028;-71
2023/06/12 02:41:45;;;;;;;13.25;9.00;;;11.40;99.90;;;;;;5094731;28;20107;-72
2023/06/12 02:44:11;;;;;;;12.38;8.73;;;11.40;99.90;;;;;;5094634;28;20032;-72
2023/06/12 02:46:59;;;;;;;14.88;10.23;;;11.40;99.90;;;;;;5094418;28;20039;-71
2023/06/12 02:49:27;;;;;;;12.73;8.32;;;11.30;99.90;;;;;;5093360;28;20036;-71
2023/06/12 02:51:52;;;;;;;14.20;9.20;;;11.30;99.90;;;;;;5094531;28;20021;-72
2023/06/12 02:54:22;;;;;;;11.68;9.07;;;11.30;99.90;;;;;;5094479;28;20032;-72
2023/06/12 02:56:48;;;;;;;12.45;9.57;;;11.30;99.90;;;;;;5094187;28;20083;-72
2023/06/12 02:59:19;;;;;;;12.15;9.50;;;11.30;99.90;;;;;;5094313;28;20097;-72
2023/06/12 03:01:45;;;;;;;13.07;9.40;;;11.20;99.90;;;;;;5094363;28;20065;-72
2023/06/12 03:04:21;;;;;;;12.88;8.55;;;11.30;99.90;;;;;;5094300;28;20028;-72
2023/06/12 03:06:51;;;;;;;11.02;8.50;;;11.20;99.90;;;;;;5094254;28;20040;-72
2023/06/12 03:09:18;;;;;;;15.80;8.88;;;11.20;99.90;;;;;;5094108;28;20498;-72
2023/06/12 03:11:45;;;;;;;11.82;9.70;;;11.20;99.90;;;;;;5092879;28;20473;-72
2023/06/12 03:14:12;;;;;;;14.30;8.95;;;11.10;99.90;;;;;;5094115;28;20039;-72
2023/06/12 03:16:38;;;;;;;15.23;9.50;;;11.10;99.90;;;;;;5093070;28;20046;-72
2023/06/12 03:19:04;;;;;;;10.90;8.68;;;11.10;99.90;;;;;;5093705;28;20052;-72
2023/06/12 03:21:30;;;;;;;13.68;9.38;;;11.10;99.90;;;;;;5092740;28;20039;-72
2023/06/12 03:23:56;;;;;;;17.50;9.57;;;11.10;99.90;;;;;;5092776;28;20032;-72
2023/06/12 03:26:22;;;;;;;11.75;8.82;;;11.10;99.90;;;;;;5093969;28;20028;-72
2023/06/12 03:28:48;;;;;;;11.45;9.27;;;11.10;99.90;;;;;;5093932;28;20043;-72
2023/06/12 03:31:14;;;;;;;13.15;9.90;;;11.10;99.90;;;;;;5093935;28;20032;-72
2023/06/12 03:33:40;;;;;;;13.52;8.65;;;11.10;99.90;;;;;;5092591;28;20035;-71
2023/06/12 03:36:05;;;;;;;13.02;10.05;;;11.10;99.90;;;;;;5093588;28;20035;-72
2023/06/12 03:38:31;;;;;;;10.57;9.18;;;11.10;99.90;;;;;;5093525;28;20036;-71
2023/06/12 03:40:57;;;;;;;13.57;9.63;;;11.20;99.90;;;;;;5093802;28;20112;-72
2023/06/12 03:43:22;;;;;;;16.65;9.57;;;11.20;99.90;;;;;;5093726;28;20036;-72
2023/06/12 03:45:48;;;;;;;13.73;9.73;;;11.20;99.90;;;;;;5093785;28;20389;-72
2023/06/12 03:48:14;;;;;;;11.75;10.18;;;11.20;99.90;;;;;;5093751;28;20043;-73
2023/06/12 03:50:40;;;;;;;12.55;10.15;;;11.20;99.90;;;;;;5093979;28;20063;-72
2023/06/12 03:53:05;;;;;;;11.07;9.50;;;11.20;99.90;;;;;;5093711;28;20035;-72
2023/06/12 03:55:32;;;;;;;14.85;10.05;;;11.30;99.90;;;;;;5093736;28;20447;-72
2023/06/12 03:57:57;;;;;;;12.32;10.15;;;11.30;99.90;;;;;;5094042;28;20035;-72
2023/06/12 04:00:23;;;;;;;14.23;9.30;;;11.30;99.90;;;;;;5094113;28;20492;-72
2023/06/12 04:02:49;;;;;;;24.00;11.48;;;11.40;99.90;;;;;;5093605;28;20040;-72
2023/06/12 04:05:15;;;;;;;10.80;9.25;;;11.40;99.90;;;;;;5094109;28;20071;-73
2023/06/12 04:07:41;;;;;;;14.00;10.50;;;;;;;;;;5092790;28;20055;-74
2023/06/12 04:10:10;;;;;;;10.88;9.07;;;11.40;99.90;;;;;;5093561;28;20043;-74
2023/06/12 04:12:36;;;;;;;12.73;9.63;;;11.50;99.90;;;;;;5092565;28;20056;-75
2023/06/12 04:15:02;;;;;;;15.93;11.55;;;11.50;99.90;;;;;;5092278;28;20449;-66
2023/06/12 04:17:29;;;;;;;21.13;10.98;;;11.60;99.90;;;;;;5093072;28;20064;-66
2023/06/12 04:19:56;;;;;;;15.20;10.63;;;11.80;99.90;;;;;;5093680;28;20083;-73
2023/06/12 04:22:25;;;;;;;12.18;9.48;;;11.80;99.90;;;;;;5092055;28;20036;-72
2023/06/12 04:24:52;;;;;;;17.92;9.20;;;11.80;99.90;;;;;;5092046;28;20473;-73
2023/06/12 04:27:18;;;;;;;10.10;9.05;;;11.80;99.90;;;;;;5092532;28;20096;-73
2023/06/12 04:29:45;;;;;;;14.20;9.15;;;11.90;99.90;;;;;;5092086;28;20036;-72
2023/06/12 04:32:14;;;;;;;9.73;8.25;;;11.90;99.90;;;;;;5093342;28;20020;-73
2023/06/12 04:34:41;;;;;;;13.95;9.73;;;12.00;99.90;;;;;;5092134;28;20492;-73
2023/06/12 04:37:08;;;;;;;13.60;9.07;;;12.10;99.90;;;;;;5091969;28;20036;-73
2023/06/12 04:39:38;;;;;;;13.32;9.25;;;12.20;99.90;;;;;;5092070;28;20040;-72
2023/06/12 04:42:05;;;;;;;14.40;8.85;;;12.30;99.90;;;;;;5091932;28;20028;-73
2023/06/12 04:44:34;;;;;;;11.85;9.20;;;12.30;99.90;;;;;;5092557;28;20033;-73
2023/06/12 04:47:14;;;;;;;19.33;9.77;;;12.50;99.90;;;;;;5093078;28;20040;-74
2023/06/12 04:49:41;;;;;;;10.95;8.75;;;12.60;99.90;;;;;;5093457;28;20035;-73
2023/06/12 04:52:08;;;;;;;13.25;9.40;;;12.70;99.90;;;;;;5096984;28;20035;-73
2023/06/12 04:54:38;;;;;;;9.90;7.75;;;12.70;99.90;;;;;;5095428;28;20102;-73
2023/06/12 04:57:12;;;;;;;12.57;7.80;;;12.80;99.90;;;;;;5096655;28;20035;-73
2023/06/12 04:59:42;;;;;;;16.13;8.15;;;12.90;99.90;;;;;;5096610;28;20416;-74
2023/06/12 05:02:08;;;;;;;14.73;7.95;;;13.10;99.90;;;;;;5096783;28;20047;-73
2023/06/12 05:04:38;;;;;;;11.18;7.10;;;;;;;;;;5096573;28;20036;-73
2023/06/12 05:07:04;;;;;;;;;;;13.30;99.90;;;;;;5096868;28;20107;-74
2023/06/12 05:09:30;;;;;;;13.07;7.30;;;13.50;99.90;;;;;;5095082;28;19904;-73
2023/06/12 05:11:56;;;;;;;15.10;8.32;;;13.60;99.90;;;;;;5094726;28;20068;-73
2023/06/12 05:14:22;;;;;;;10.38;7.47;;;13.70;99.90;;;;;;5096277;28;20055;-73
2023/06/12 05:16:48;;;;;;;8.68;7.78;;;13.80;99.90;;;;;;5096139;28;20039;-72
2023/06/12 05:19:14;;;;;;;12.95;6.55;;;13.90;99.90;;;;;;5094652;28;20070;-74
2023/06/12 05:21:41;;;;;;;12.65;7.05;;;14.00;99.90;;;;;;5096110;28;20477;-74
2023/06/12 05:24:07;;;;;;;7.22;6.22;;;14.10;99.90;;;;;;5096420;28;20078;-74
2023/06/12 05:26:33;;;;;;;11.93;6.80;;;14.20;99.90;;;;;;5094871;28;20032;-74
2023/06/12 05:29:00;;;;;;;8.95;6.25;;;14.40;99.90;;;;;;5094726;28;20370;-74
2023/06/12 05:31:28;;;;;;;11.88;6.35;;;14.50;99.90;;;;;;5096252;28;20414;-74
2023/06/12 05:33:54;;;;;;;10.02;6.72;;;14.70;99.90;;;;;;5095988;28;20028;-74
2023/06/12 05:36:20;;;;;;;11.38;6.25;;;14.90;99.90;;;;;;5095945;28;20479;-74
2023/06/12 05:38:46;;;;;;;8.55;5.82;;;15.00;99.90;;;;;;5095730;28;20040;-73
2023/06/12 05:41:14;;;;;;;13.77;6.90;;;15.10;99.90;;;;;;5096093;28;20385;-74
2023/06/12 05:43:40;;;;;;;7.65;5.50;;;15.20;99.90;;;;;;5095462;28;20385;-71
2023/06/12 05:46:05;;;;;;;10.20;5.53;;;15.30;99.90;;;;;;5094645;28;20029;-74
2023/06/12 05:48:31;;;;;;;7.18;5.22;;;15.50;99.90;;;;;;5095618;28;20058;-75
2023/06/12 05:50:56;;;;;;;5.68;5.07;;;15.60;99.90;;;;;;5094223;28;20032;-74
2023/06/12 05:53:22;;;;;;;5.85;4.95;;;15.80;99.90;;;;;;5095577;28;20028;-74
2023/06/12 05:55:48;;;;;;;7.60;4.95;;;15.90;99.90;;;;;;5095257;28;20040;-74
2023/06/12 05:58:13;;;;;;;6.63;5.07;;;15.90;99.90;;;;;;5095470;28;20449;-74
2023/06/12 06:00:40;;;;;;;9.95;5.32;;;16.00;99.90;;;;;;5094046;28;20058;-74
2023/06/12 06:03:06;;;;;;;5.80;4.55;;;16.10;99.90;;;;;;5094117;28;20043;-74
2023/06/12 06:05:32;;;;;;;7.45;4.60;;;16.20;99.90;;;;;;5094137;28;20469;-74
2023/06/12 06:07:58;;;;;;;5.68;4.32;;;16.20;99.90;;;;;;5094982;28;20039;-73
2023/06/12 06:10:24;;;;;;;7.07;4.80;;;16.10;99.90;;;;;;5095278;28;20097;-73
2023/06/12 06:12:52;;;;;;;9.35;6.00;;;16.10;99.90;;;;;;5094026;28;20426;-73
2023/06/12 06:15:18;;;;;;;5.97;4.90;;;16.30;99.90;;;;;;5093792;28;20036;-74
2023/06/12 06:17:44;;;;;;;12.70;5.75;;;16.50;99.90;;;;;;5095037;28;20289;-74
2023/06/12 06:20:11;;;;;;;6.60;4.90;;;16.70;99.90;;;;;;5095315;28;20055;-73
2023/06/12 06:22:37;;;;;;;7.35;4.45;;;17.00;99.90;;;;;;5094991;28;20032;-73
2023/06/12 06:25:03;;;;;;;6.35;4.88;;;17.30;99.90;;;;;;5095040;28;20055;-73
2023/06/12 06:27:30;;;;;;;4.50;4.05;;;17.50;99.90;;;;;;5094857;28;20043;-73
2023/06/12 06:29:55;;;;;;;5.35;3.85;;;17.90;99.90;;;;;;5094610;28;20028;-74
2023/06/12 06:32:21;;;;;;;9.07;4.80;;;18.40;99.90;;;;;;5094816;28;20078;-73
2023/06/12 06:34:48;;;;;;;8.70;4.25;;;18.80;99.90;;;;;;5093461;28;20032;-73
2023/06/12 06:37:14;;;;;;;9.45;4.07;;;19.20;99.90;;;;;;5094704;28;20525;-73
2023/06/12 06:39:40;;;;;;;4.50;3.78;;;19.40;99.90;;;;;;5094587;28;20170;-74
2023/06/12 06:42:06;;;;;;;6.38;3.75;;;19.90;99.90;;;;;;5094574;28;20024;-74
2023/06/12 06:44:32;;;;;;;4.45;3.63;;;20.40;99.90;;;;;;5095180;28;20354;-75
2023/06/12 06:46:57;;;;;;;6.60;4.20;;;20.40;99.90;;;;;;5093989;28;20032;-74
2023/06/12 06:49:23;;;;;;;4.70;3.47;;;19.90;99.90;;;;;;5094780;28;20495;-73
2023/06/12 06:51:49;;;;;;;4.95;3.80;;;19.50;99.90;;;;;;5093138;28;20028;-74
2023/06/12 06:54:14;;;;;;;4.22;3.83;;;19.20;99.90;;;;;;5093156;28;20469;-74
2023/06/12 06:56:40;;;;;;;7.60;3.65;;;19.10;99.90;;;;;;5094678;28;20090;-74
2023/06/12 06:59:06;;;;;;;4.50;3.42;;;19.40;99.90;;;;;;5094258;28;20047;-74
2023/06/12 07:01:33;;;;;;;7.10;3.50;;;19.90;99.90;;;;;;5094453;28;20028;-74
2023/06/12 07:03:59;;;;;;;3.40;3.10;;;20.60;99.90;;;;;;5093598;28;20036;-74
2023/06/12 07:06:25;;;;;;;4.97;3.50;;;21.00;99.90;;;;;;5094201;28;20028;-73
2023/06/12 07:08:50;;;;;;;6.82;3.50;;;20.70;99.90;;;;;;5094297;28;20397;-73
2023/06/12 07:11:16;;;;;;;7.45;4.13;;;20.60;99.90;;;;;;5092838;28;20035;-74
2023/06/12 07:13:42;;;;;;;4.13;3.50;;;20.60;99.90;;;;;;5092408;28;20043;-73
2023/06/12 07:16:08;;;;;;;5.35;3.40;;;20.50;99.80;;;;;;5094036;28;20036;-74
2023/06/12 07:18:33;;;;;;;6.82;3.80;;;20.60;99.90;;;;;;5092533;28;20044;-74
2023/06/12 07:21:00;;;;;;;5.05;3.20;;;20.90;99.90;;;;;;5092589;28;20401;-65
2023/06/12 07:23:25;;;;;;;11.27;3.58;;;21.50;99.90;;;;;;5094134;28;20164;-65
2023/06/12 07:25:51;;;;;;;5.38;3.75;;;21.80;97.80;;;;;;5094324;28;20463;-65
2023/06/12 07:28:17;;;;;;;4.50;3.33;;;21.50;97.50;;;;;;5092601;28;20047;-65
2023/06/12 07:30:42;;;;;;;4.05;2.92;;;21.50;96.90;;;;;;5093962;28;20034;-65
2023/06/12 07:33:09;;;;;;;3.53;3.22;;;21.10;97.30;;;;;;5093493;28;20034;-65
2023/06/12 07:35:35;;;;;;;6.18;3.10;;;20.60;97.30;;;;;;5093912;28;20029;-66
2023/06/12 07:38:02;;;;;;;6.97;3.30;;;20.30;98.20;;;;;;5093648;28;20043;-65
2023/06/12 07:40:28;;;;;;;5.32;3.03;;;20.00;98.60;;;;;;5094117;28;20368;-65
2023/06/12 07:42:53;;;;;;;6.10;3.20;;;20.20;99.60;;;;;;5093786;28;20111;-65
2023/06/12 07:45:19;;;;;;;4.00;3.47;;;20.40;98.30;;;;;;5093769;28;20039;-65
2023/06/12 07:47:47;;;;;;;4.13;3.53;;;20.20;98.60;;;;;;5093831;28;20044;-65
2023/06/12 07:50:13;;;;;;;4.78;3.30;;;20.40;99.50;;;;;;5093722;28;20047;-65
2023/06/12 07:52:38;;;;;;;5.88;3.55;;;20.80;98.10;;;;;;5093711;28;20393;-65
2023/06/12 07:55:05;;;;;;;3.90;3.30;;;20.80;97.20;;;;;;5093541;28;20028;-65
2023/06/12 07:57:31;;;;;;;4.72;3.05;;;21.00;98.40;;;;;;5093524;28;20039;-65
2023/06/12 07:59:57;;;;;;;4.38;3.20;;;21.20;95.40;;;;;;5093519;28;20512;-65
2023/06/12 08:02:28;;;;;;;7.63;3.45;;;21.10;95.40;;;;;;5093540;28;20040;-65
2023/06/12 08:04:55;;;;;;;3.47;2.92;;;21.50;94.40;;;;;;5093557;28;20028;-65
2023/06/12 08:07:21;;;;;;;5.68;3.08;;;21.60;93.60;;;;;;5093547;28;20028;-65
2023/06/12 08:09:47;;;;;;;4.90;3.20;;;21.50;93.00;;;;;;5093236;28;20500;-66
2023/06/12 08:12:13;;;;;;;3.58;2.85;;;21.30;93.40;;;;;;5093509;28;20024;-65
2023/06/12 08:14:39;;;;;;;3.63;2.72;;;21.20;93.50;;;;;;5093705;28;20037;-65
2023/06/12 08:17:05;;;;;;;5.75;2.70;;;21.20;94.00;;;;;;5093161;28;20059;-65
2023/06/12 08:19:32;;;;;;;3.40;2.78;;;21.30;94.50;;;;;;5093096;28;20051;-65
2023/06/12 08:21:58;;;;;;;3.28;2.97;;;21.70;94.30;;;;;;5093346;28;20220;-65
2023/06/12 08:24:29;;;;;;;4.20;2.80;;;21.90;92.90;;;;;;5093333;28;20527;-65
2023/06/12 08:26:55;;;;;;;3.13;2.83;;;22.20;92.30;;;;;;5097383;28;20032;-65
2023/06/12 08:29:21;;;;;;;4.38;2.70;;;22.40;91.80;;;;;;5097196;28;20024;-65
2023/06/12 08:31:46;;;;;;;6.07;3.13;;;22.20;91.00;;;;;;5096969;28;20105;-65
2023/06/12 08:34:12;;;;;;;4.53;3.03;;;21.60;91.30;;;;;;5095838;28;20469;-65
2023/06/12 08:36:38;;;;;;;5.75;2.90;;;21.30;92.60;;;;;;5097160;28;20036;-65
2023/06/12 08:39:04;;;;;;;3.67;3.20;;;21.10;93.50;;;;;;5096871;28;20036;-65
2023/06/12 08:41:32;;;;;;;5.82;3.20;;;20.90;93.10;;;;;;5097082;28;20400;-65
2023/06/12 08:44:01;;;;;;;5.47;3.00;;;20.50;94.20;;;;;;5096660;28;20197;-65
2023/06/12 08:46:29;;;;;;;;;;;20.10;94.40;;;;;;5097250;28;20040;-64
2023/06/12 08:48:55;;;;;;;3.53;3.22;;;19.80;95.70;;;;;;5096415;28;20288;-66
2023/06/12 08:51:21;;;;;;;5.45;3.60;;;19.70;96.60;;;;;;5116478;28;20464;-65
2023/06/12 08:53:47;;;;;;;5.55;3.13;;;19.70;96.90;;;;;;5117147;28;20043;-65
2023/06/12 08:56:13;;;;;;;7.43;3.10;;;20.40;96.60;;;;;;5117152;28;20032;-65
2023/06/12 08:58:39;;;;;;;3.40;3.00;;;21.40;95.00;;;;;;5117035;28;20031;-65
2023/06/12 09:01:08;;;;;;;4.75;3.13;;;22.30;91.90;;;;;;5117036;28;20058;-65
2023/06/12 09:03:35;;;;;;;3.58;2.83;;;22.70;91.90;;;;;;5099023;28;20536;-65
2023/06/12 09:06:05;;;;;;;3.90;3.20;;;23.30;89.70;;;;;;5116945;28;20093;-65
2023/06/12 09:08:32;;;;;;;3.78;2.75;;;23.60;90.70;;;;;;5117131;28;20468;-65
2023/06/12 09:10:59;;;;;;;3.33;3.03;;;23.70;86.60;;;;;;5116722;28;20104;-65
2023/06/12 09:13:24;;;;;;;5.57;3.05;;;22.90;87.60;;;;;;5116706;28;20059;-65
2023/06/12 09:15:52;;;;;;;6.90;3.15;;;22.50;89.40;;;;;;5116868;28;20432;-65
2023/06/12 09:18:19;;;;;;;6.70;3.47;;;22.00;90.00;;;;;;5116798;28;20071;-64
2023/06/12 09:20:48;;;;;;;5.20;3.58;;;21.80;90.80;;;;;;5135441;27;20047;-65
2023/06/12 09:23:16;;;;;;;7.50;3.20;;;21.80;91.40;;;;;;5136934;27;20115;-64
2023/06/12 09:25:43;;;;;;;5.82;2.90;;;22.60;91.90;;;;;;5137119;27;20044;-65
2023/06/12 09:28:10;;;;;;;3.28;2.97;;;23.70;88.30;;;;;;5137475;27;20043;-65
2023/06/12 09:30:41;;;;;;;6.75;2.80;;;24.20;85.60;;;;;;5137002;27;20039;-65
2023/06/12 09:33:07;;;;;;;3.58;3.03;;;24.50;84.80;;;;;;5136867;27;20482;-65
2023/06/12 09:35:48;;;;;;;3.00;2.75;;;25.20;81.60;;;;;;5136425;27;20062;-65
2023/06/12 09:38:14;;;;;;;5.00;3.35;;;25.40;77.60;;;;;;5137206;27;20399;-65
2023/06/12 09:40:41;;;;;;;4.65;2.60;;;24.70;76.60;;;;;;5137115;27;20119;-65
2023/06/12 09:43:06;;;;;;;7.38;3.30;;;24.00;78.80;;;;;;5136497;27;20468;-65
2023/06/12 09:45:32;;;;;;;4.28;3.30;;;23.50;80.70;;;;;;5118159;27;20032;-65
2023/06/12 09:47:58;;;;;;;4.50;2.70;;;23.10;81.70;;;;;;5136819;27;20035;-65
2023/06/12 09:50:25;;;;;;;2.63;2.42;;;23.40;80.90;;;;;;5136258;27;20480;-66
2023/06/12 09:52:54;;;;;;;3.28;2.55;;;23.10;81.20;;;;;;5136456;27;20540;-65
2023/06/12 09:55:20;;;;;;;3.30;2.83;;;22.90;79.40;;;;;;5136676;27;20027;-65
2023/06/12 09:57:49;;;;;;;5.30;2.60;;;22.70;79.20;;;;;;5136443;27;20427;-65
2023/06/12 10:00:16;;;;;;;4.78;2.50;;;22.70;78.60;;;;;;5136330;27;20027;-65
2023/06/12 10:03:05;;;;;;;7.25;2.80;;;23.30;82.50;;;;;;5136401;27;20058;-65
2023/06/12 10:05:35;;;;;;;5.25;3.10;;;23.40;73.60;;;;;;5136367;27;20054;-66
2023/06/12 10:08:03;;;;;;;7.65;3.30;;;23.30;76.10;;;;;;5117819;27;20079;-65
2023/06/12 10:10:39;;;;;;;4.50;3.00;;;23.90;74.70;;;;;;5136148;27;20480;-65
2023/06/12 10:13:04;;;;;;;6.55;2.58;;;24.80;73.50;;;;;;5136211;27;20031;-65
2023/06/12 10:15:31;;;;;;;5.80;2.50;;;25.60;72.30;;;;;;5136403;27;20057;-66
2023/06/12 10:17:58;;;;;;;4.85;2.40;;;25.60;68.70;;;;;;5136223;27;20039;-65
2023/06/12 10:20:26;;;;;;;2.30;2.10;;;26.00;68.90;;;;;;5136542;27;20043;-66
2023/06/12 10:22:54;;;;;;;5.07;2.97;;;25.80;68.90;;;;;;5136149;27;20041;-65
2023/06/12 10:25:20;;;;;;;3.10;2.40;;;25.20;67.00;;;;;;5136476;27;20081;-66
2023/06/12 10:27:47;;;;;;;4.13;2.80;;;24.60;68.90;;;;;;5136161;27;20027;-66
2023/06/12 10:30:15;;;;;;;3.15;2.42;;;24.70;68.90;;;;;;5136111;27;20063;-66
2023/06/12 10:32:44;;;;;;;4.07;2.33;;;24.60;67.20;;;;;;5136850;27;20027;-66
2023/06/12 10:35:09;;;;;;;2.83;2.33;;;24.20;67.70;;;;;;5135824;27;20392;-66
2023/06/12 10:37:42;;;;;;;3.22;2.58;;;23.80;68.30;;;;;;5136544;27;20092;-66
2023/06/12 10:40:16;;;;;;;3.03;2.30;;;24.10;69.90;;;;;;5136103;27;20105;-66
2023/06/12 10:42:53;;;;;;;2.47;2.28;;;24.00;67.10;;;;;;5117470;27;20464;-66
2023/06/12 10:45:25;;;;;;;2.35;2.15;;;24.20;66.70;;;;;;5135601;27;20498;-65
2023/06/12 10:48:03;;;;;;;4.05;2.40;;;24.20;65.80;;;;;;5135094;27;20386;-65
2023/06/12 10:50:34;;;;;;;5.25;2.35;;;23.90;68.40;;;;;;5135183;27;20399;-66
2023/06/12 10:53:01;;;;;;;3.78;2.40;;;23.50;68.00;;;;;;5135605;27;20379;-66
2023/06/12 10:55:27;;;;;;;3.30;2.53;;;23.50;68.70;;;;;;5135234;27;20028;-66
2023/06/12 10:57:54;;;;;;;2.53;2.17;;;24.10;65.90;;;;;;5117467;27;20180;-65
2023/06/12 11:00:28;;;;;;;2.28;2.17;;;24.60;64.10;;;;;;5134870;27;20042;-66
2023/06/12 11:03:04;;;;;;;4.38;2.45;;;24.30;62.90;;;;;;5135039;27;20025;-65
2023/06/12 11:05:30;;;;;;;5.30;2.40;;;24.10;63.90;;;;;;5135143;27;20035;-65
2023/06/12 11:08:00;;;;;;;6.32;2.60;;;23.80;66.70;;;;;;5134958;27;20037;-66
2023/06/12 11:10:27;;;;;;;2.95;2.20;;;23.50;65.50;;;;;;5135039;27;20035;-65
2023/06/12 11:12:53;;;;;;;4.28;2.45;;;23.30;67.10;;;;;;5134973;27;20031;-66
2023/06/12 11:15:21;;;;;;;4.80;2.17;;;23.80;66.60;;;;;;5134716;27;20468;-65
2023/06/12 11:17:47;;;;;;;5.65;2.53;;;25.00;64.10;;;;;;5134510;27;20522;-66
2023/06/12 11:20:14;;;;;;;3.05;2.20;;;26.10;62.90;;;;;;5135194;27;20055;-66
2023/06/12 11:22:40;;;;;;;2.70;1.98;;;26.50;58.00;;;;;;5134743;27;20043;-66
2023/06/12 11:25:06;;;;;;;5.22;2.20;;;26.50;54.00;;;;;;5116266;27;20532;-65
2023/06/12 11:27:37;;;;;;;3.65;2.10;;;25.80;56.00;;;;;;5134423;27;20110;-65
2023/06/12 11:30:16;;;;;;;2.50;2.15;;;25.50;58.00;;;;;;5134589;27;20111;-65
2023/06/12 11:32:45;;;;;;;3.15;2.10;;;24.20;60.20;;;;;;5134423;27;20396;-65
2023/06/12 11:35:11;;;;;;;;;;;24.20;60.80;;;;;;5134683;27;20074;-65
2023/06/12 11:37:38;;;;;;;3.65;2.33;;;24.80;62.00;;;;;;5134521;27;19957;-65
2023/06/12 11:40:10;;;;;;;2.40;1.95;;;23.90;62.40;;;;;;5134614;27;20080;-65
2023/06/12 11:42:45;;;;;;;2.78;1.85;;;24.60;60.10;;;;;;5135063;27;20038;-65
2023/06/12 11:45:15;;;;;;;8.30;1.70;;;25.70;59.90;;;;;;5134789;27;20027;-66
2023/06/12 11:47:45;;;;;;;3.63;2.15;;;27.10;56.60;;;;;;5116324;28;20476;-66
2023/06/12 11:50:14;;;;;;;2.30;1.90;;;27.00;55.30;;;;;;5134468;28;20031;-66
2023/06/12 11:52:42;;;;;;;4.70;2.30;;;26.50;54.90;;;;;;5134466;28;20039;-66
2023/06/12 11:55:17;;;;;;;3.45;2.50;;;25.80;56.20;;;;;;5134427;28;20032;-66
2023/06/12 11:57:50;;;;;;;3.08;2.17;;;25.00;56.80;;;;;;5134636;28;20032;-65
2023/06/12 12:00:20;;;;;;;3.55;2.10;;;24.20;59.70;;;;;;5137558;27;20112;-65
2023/06/12 12:02:53;;;;;;;4.80;1.88;;;23.80;60.70;;;;;;5120232;27;20039;-74
2023/06/12 12:05:20;;;;;;;3.70;2.10;;;24.00;59.40;;;;;;5120029;27;20040;-75
2023/06/12 12:07:55;;;;;;;4.53;2.10;;;24.50;59.40;;;;;;5120014;27;20028;-74
2023/06/12 12:10:22;;;;;;;2.88;1.70;;;26.20;53.20;;;;;;5138935;27;20114;-74
2023/06/12 12:12:50;;;;;;;2.40;1.75;;;27.30;53.40;;;;;;5138701;27;20039;-73
2023/06/12 12:15:17;;;;;;;8.13;1.97;;;27.00;50.80;;;;;;5138246;27;20035;-75
2023/06/12 12:17:44;;;;;;;4.13;1.95;;;25.80;53.00;;;;;;5138432;27;20027;-74
2023/06/12 12:20:21;;;;;;;3.10;1.77;;;25.50;53.20;;;;;;5138215;27;20062;-74
2023/06/12 12:22:50;;;;;;;1.80;1.58;;;24.90;54.30;;;;;;5120022;27;20387;-75
2023/06/12 12:25:21;;;;;;;2.23;1.63;;;24.30;54.70;;;;;;5138440;27;20034;-75
2023/06/12 12:27:49;;;;;;;5.68;1.85;;;24.10;56.40;;;;;;5138212;27;20027;-75
2023/06/12 12:30:16;;;;;;;3.97;2.00;;;24.70;56.30;;;;;;5119645;27;20027;-74
2023/06/12 12:32:46;;;;;;;2.67;1.75;;;25.80;52.70;;;;;;5137986;27;20099;-75
2023/06/12 12:35:13;;;;;;;3.55;1.65;;;26.80;52.20;;;;;;5119101;27;20144;-74
2023/06/12 12:37:39;;;;;;;3.38;1.70;;;27.30;50.30;;;;;;5137759;27;20480;-74
2023/06/12 12:40:09;;;;;;;4.43;1.85;;;27.10;49.60;;;;;;5137821;27;20504;-74
2023/06/12 12:42:38;;;;;;;2.35;1.70;;;26.30;50.70;;;;;;5137779;27;20027;-74
2023/06/12 12:45:05;;;;;;;2.10;1.88;;;25.80;51.50;;;;;;5136926;27;20051;-74
2023/06/12 12:47:31;;;;;;;3.38;1.60;;;26.00;51.80;;;;;;5137779;27;20035;-73